Mount Oliver, Pennsylvania
Current Conditions -  °F | °C
As of 3:53 PM on Friday 28 Nov 2014 (Local Time) from KAGC Reporting Station
Clear Clear  
Wind Chill: 18°   Ceiling: Unl
Heat Index: 27°   Visibility: 10mi
Dew Point: 14°   Wind: 9mph
Humidity: 58%   Direction: 260°W
Pressure: 30.23"   Gusts: NA
Location:  40.4064°N, 79.9829°W
Report Text: KAGC 282053Z 26008KT 10SM CLR M03/M10 A3023 RMK AO2 SLP256 T10281100 56010
Loading
Personal Weather Stations






























Interactive Weather Map New forecast layout! Learn more

10-Day Weather Forecast

Advertisements
Track Severe Weather on mobile